Time;durP1;ratioP1;P1;durP2;ratioP2;P2;SDS_P1;SDS_P2;PMS_P1;PMS_P2;Temp;Humidity;BMP_temperature;BMP_pressure;BME280_temperature;BME280_humidity;BME280_pressure;Samples;Min_cycle;Max_cycle;Signal;HPM_P1;HPM_P2
2021/07/21 00:00:36;;;;;;;541.88;427.17;;;;;;;;;;4968201;28;20018;-76
2021/07/21 00:03:03;;;;;;;540.92;422.17;;;;;;;;;;4943457;28;20030;-76
2021/07/21 00:05:29;;;;;;;542.72;421.17;;;;;;;;;;4964078;28;20023;-74
2021/07/21 00:07:55;;;;;;;541.40;421.30;;;;;;;;;;4946220;28;20015;-76
2021/07/21 00:10:22;;;;;;;542.42;424.30;;;;;;;;;;4964492;28;20101;-74
2021/07/21 00:15:36;;;;;;;543.65;426.88;;;;;;;;;;4961791;28;20045;-73
2021/07/21 00:18:16;;;;;;;540.88;417.77;;;;;;;;;;4971088;28;20037;-75
2021/07/21 00:20:44;;;;;;;542.10;421.17;;;;;;;;;;4943689;29;20166;-75
2021/07/21 00:23:10;;;;;;;539.92;418.42;;;;;;;;;;4961045;28;20077;-74
2021/07/21 00:25:37;;;;;;;539.58;419.92;;;;;;;;;;4945105;29;20030;-75
2021/07/21 00:28:03;;;;;;;541.30;425.40;;;;;;;;;;4951471;28;20050;-74
2021/07/21 00:30:29;;;;;;;547.72;439.73;;;;;;;;;;4939301;29;20019;-74
2021/07/21 00:32:56;;;;;;;542.58;427.23;;;;;;;;;;4952778;29;20352;-74
2021/07/21 00:35:22;;;;;;;540.78;421.65;;;;;;;;;;4954512;29;20035;-74
2021/07/21 00:37:49;;;;;;;537.35;417.52;;;;;;;;;;4953956;28;20020;-71
2021/07/21 00:40:16;;;;;;;538.42;417.80;;;;;;;;;;4937046;29;20034;-74
2021/07/21 00:42:43;;;;;;;541.83;427.23;;;;;;;;;;4954141;29;20024;-74
2021/07/21 00:45:09;;;;;;;540.72;428.35;;;;;;;;;;4942193;29;20025;-73
2021/07/21 00:47:36;;;;;;;541.65;431.75;;;;;;;;;;4937167;29;20027;-74
2021/07/21 00:50:03;;;;;;;535.80;417.67;;;;;;;;;;4935569;29;20035;-75
2021/07/21 00:52:32;;;;;;;539.95;429.48;;;;;;;;;;4936601;29;20043;-72
2021/07/21 00:54:58;;;;;;;538.75;425.58;;;;;;;;;;4941650;28;20119;-74
2021/07/21 00:57:25;;;;;;;538.38;427.63;;;;;;;;;;4955848;28;20038;-73
2021/07/21 00:59:52;;;;;;;535.53;412.58;;;;;;;;;;4973066;28;20708;-73
2021/07/21 01:02:18;;;;;;;537.38;423.98;;;;;;;;;;4973534;28;20085;-74
2021/07/21 01:04:44;;;;;;;539.25;430.35;;;;;;;;;;4955794;28;20026;-75
2021/07/21 01:07:11;;;;;;;537.05;424.90;;;;;;;;;;4956015;28;20474;-73
2021/07/21 01:09:37;;;;;;;541.55;436.27;;;;;;;;;;4972944;28;20033;-73
2021/07/21 01:12:07;;;;;;;538.22;430.08;;;;;;;;;;4955693;28;20054;-73
2021/07/21 01:14:42;;;;;;;541.10;427.08;;;;;;;;;;4955807;28;20023;-73
2021/07/21 01:17:12;;;;;;;537.60;424.48;;;;;;;;;;4973497;28;20029;-75
2021/07/21 01:19:44;;;;;;;538.03;429.05;;;;;;;;;;4971297;28;20027;-73
2021/07/21 01:22:25;;;;;;;537.05;426.58;;;;;;;;;;4955951;28;20524;-72
2021/07/21 01:25:04;;;;;;;538.58;425.95;;;;;;;;;;4951380;29;20023;-74
2021/07/21 01:27:38;;;;;;;539.17;430.30;;;;;;;;;;4954495;29;20038;-74
2021/07/21 01:30:12;;;;;;;536.95;423.35;;;;;;;;;;4936696;29;20046;-73
2021/07/21 01:32:40;;;;;;;535.70;416.95;;;;;;;;;;4937000;29;20035;-74
2021/07/21 01:35:10;;;;;;;537.33;420.55;;;;;;;;;;4936613;29;20109;-73
2021/07/21 01:37:38;;;;;;;536.67;423.98;;;;;;;;;;4972299;28;20397;-73
2021/07/21 01:40:06;;;;;;;535.50;420.73;;;;;;;;;;4973060;28;20019;-72
2021/07/21 01:42:32;;;;;;;534.88;420.30;;;;;;;;;;4940872;29;20031;-74
2021/07/21 01:45:00;;;;;;;538.35;429.90;;;;;;;;;;4940039;29;20528;-73
2021/07/21 01:47:28;;;;;;;535.38;423.20;;;;;;;;;;4939946;29;20027;-74
2021/07/21 01:49:55;;;;;;;536.10;423.70;;;;;;;;;;4943260;28;20387;-72
2021/07/21 01:52:24;;;;;;;535.67;420.77;;;;;;;;;;4958739;28;20039;-74
2021/07/21 01:54:51;;;;;;;538.17;426.27;;;;;;;;;;4959213;28;20114;-75
2021/07/21 01:57:18;;;;;;;538.97;429.92;;;;;;;;;;4976503;28;20731;-75
2021/07/21 01:59:46;;;;;;;537.70;421.73;;;;;;;;;;4976503;28;20063;-75
2021/07/21 02:02:13;;;;;;;535.35;421.33;;;;;;;;;;4959010;28;20027;-76
2021/07/21 02:04:40;;;;;;;537.42;424.35;;;;;;;;;;4958967;28;20062;-74
2021/07/21 02:07:10;;;;;;;535.47;419.88;;;;;;;;;;4976309;28;20025;-75
2021/07/21 02:09:37;;;;;;;535.40;417.65;;;;;;;;;;4951994;28;20077;-73
2021/07/21 02:12:03;;;;;;;537.05;424.27;;;;;;;;;;4946947;28;20559;-75
2021/07/21 02:14:29;;;;;;;537.42;423.90;;;;;;;;;;4967937;28;20046;-74
2021/07/21 02:16:56;;;;;;;537.20;423.77;;;;;;;;;;4963148;28;20499;-76
2021/07/21 02:19:23;;;;;;;538.55;421.33;;;;;;;;;;4950519;28;20039;-76
2021/07/21 02:21:50;;;;;;;536.13;418.98;;;;;;;;;;4969364;28;20038;-76
2021/07/21 02:24:16;;;;;;;538.25;422.38;;;;;;;;;;4953713;28;20027;-76
2021/07/21 02:26:42;;;;;;;536.80;417.65;;;;;;;;;;4951993;28;20040;-76
2021/07/21 02:29:08;;;;;;;535.10;412.55;;;;;;;;;;4974867;28;20027;-77
2021/07/21 02:31:40;;;;;;;537.42;415.90;;;;;;;;;;4955721;28;20031;-76
2021/07/21 02:34:06;;;;;;;537.90;419.13;;;;;;;;;;4972761;28;20422;-76
2021/07/21 02:36:33;;;;;;;536.75;409.92;;;;;;;;;;4967276;28;20034;-75
2021/07/21 02:38:59;;;;;;;535.22;409.27;;;;;;;;;;4972697;28;20034;-75
2021/07/21 02:41:25;;;;;;;542.40;415.38;;;;;;;;;;4949628;28;20058;-77
2021/07/21 02:43:51;;;;;;;537.10;416.80;;;;;;;;;;4968390;28;20023;-77
2021/07/21 02:46:17;;;;;;;535.88;414.05;;;;;;;;;;4951321;28;20442;-78
2021/07/21 02:48:47;;;;;;;535.35;412.33;;;;;;;;;;4949989;28;20141;-77
2021/07/21 02:51:31;;;;;;;537.37;416.13;;;;;;;;;;4951351;29;20475;-76
2021/07/21 02:54:18;;;;;;;536.00;405.75;;;;;;;;;;4966855;28;20039;-77
2021/07/21 02:56:51;;;;;;;534.20;405.40;;;;;;;;;;4967457;28;20039;-77
2021/07/21 02:59:19;;;;;;;535.15;403.90;;;;;;;;;;4945797;28;20218;-78
2021/07/21 03:01:50;;;;;;;536.47;409.35;;;;;;;;;;4942232;28;20028;-77
2021/07/21 03:04:23;;;;;;;537.40;410.02;;;;;;;;;;4947831;28;20353;-77
2021/07/21 03:06:51;;;;;;;536.67;405.60;;;;;;;;;;4949109;28;20495;-77
2021/07/21 03:09:19;;;;;;;536.15;408.75;;;;;;;;;;4948025;28;20758;-77
2021/07/21 03:11:46;;;;;;;536.85;408.23;;;;;;;;;;4947886;28;20027;-77
2021/07/21 03:14:12;;;;;;;535.28;403.95;;;;;;;;;;4952433;28;20375;-77
2021/07/21 03:16:44;;;;;;;535.80;404.08;;;;;;;;;;4955906;28;20034;-78
2021/07/21 03:19:11;;;;;;;533.55;398.83;;;;;;;;;;4949360;28;20064;-77
2021/07/21 03:21:37;;;;;;;534.13;399.20;;;;;;;;;;4947707;28;20031;-78
2021/07/21 03:24:04;;;;;;;538.05;408.58;;;;;;;;;;4961517;28;20086;-77
2021/07/21 03:26:31;;;;;;;533.45;397.40;;;;;;;;;;4945383;29;20066;-77
2021/07/21 03:28:57;;;;;;;538.38;408.85;;;;;;;;;;4949542;28;20031;-77
2021/07/21 03:31:23;;;;;;;533.60;394.95;;;;;;;;;;4949046;28;20027;-77
2021/07/21 03:33:59;;;;;;;535.83;396.30;;;;;;;;;;4947489;28;20086;-77
2021/07/21 03:36:26;;;;;;;534.70;392.17;;;;;;;;;;4967799;28;20396;-77
2021/07/21 03:38:54;;;;;;;534.40;391.75;;;;;;;;;;4950079;28;20118;-77
2021/07/21 03:41:21;;;;;;;537.08;395.60;;;;;;;;;;4951222;28;20022;-76
2021/07/21 03:43:47;;;;;;;537.50;396.00;;;;;;;;;;4953361;28;20422;-76
2021/07/21 03:46:14;;;;;;;536.30;394.70;;;;;;;;;;4951595;28;20179;-77
2021/07/21 03:48:40;;;;;;;535.22;389.13;;;;;;;;;;4945335;28;20046;-77
2021/07/21 03:51:06;;;;;;;537.95;398.70;;;;;;;;;;4954903;28;20039;-77
2021/07/21 03:53:32;;;;;;;533.80;383.23;;;;;;;;;;4943643;28;20070;-77
2021/07/21 03:55:59;;;;;;;532.95;386.80;;;;;;;;;;4947928;28;20797;-77
2021/07/21 03:58:25;;;;;;;535.00;392.73;;;;;;;;;;4954653;28;20043;-76
2021/07/21 04:00:55;;;;;;;533.28;388.48;;;;;;;;;;4949577;29;20020;-77
2021/07/21 04:03:21;;;;;;;533.65;388.45;;;;;;;;;;4969367;28;20542;-77
2021/07/21 04:05:50;;;;;;;532.38;388.98;;;;;;;;;;4966902;28;20027;-77
2021/07/21 04:08:16;;;;;;;533.60;391.13;;;;;;;;;;4955016;28;20027;-77
2021/07/21 04:10:42;;;;;;;535.20;391.42;;;;;;;;;;4952113;28;20035;-77
2021/07/21 04:13:08;;;;;;;533.10;391.67;;;;;;;;;;4944757;28;20035;-77
2021/07/21 04:15:34;;;;;;;533.22;395.30;;;;;;;;;;4950193;28;20019;-77
2021/07/21 04:18:00;;;;;;;535.33;400.17;;;;;;;;;;4972913;28;20023;-77
2021/07/21 04:20:27;;;;;;;532.35;393.58;;;;;;;;;;4944238;28;20110;-77
2021/07/21 04:22:54;;;;;;;534.17;399.17;;;;;;;;;;4946457;29;20027;-77
2021/07/21 04:25:21;;;;;;;537.30;407.60;;;;;;;;;;4951776;28;20026;-77
2021/07/21 04:27:47;;;;;;;535.53;406.60;;;;;;;;;;4967099;28;20019;-77
2021/07/21 04:30:14;;;;;;;536.47;401.88;;;;;;;;;;4965039;28;20031;-77
2021/07/21 04:32:41;;;;;;;533.67;398.10;;;;;;;;;;4970642;28;20073;-77
2021/07/21 04:35:12;;;;;;;532.92;399.67;;;;;;;;;;4965279;28;20026;-77
2021/07/21 04:37:41;;;;;;;532.70;396.67;;;;;;;;;;4971127;28;20041;-77
2021/07/21 04:40:08;;;;;;;536.90;413.02;;;;;;;;;;4970373;28;20022;-77
2021/07/21 04:42:34;;;;;;;537.63;412.00;;;;;;;;;;4964606;28;20046;-77
2021/07/21 04:45:00;;;;;;;536.28;410.70;;;;;;;;;;4947626;28;20055;-77
2021/07/21 04:47:26;;;;;;;534.45;405.65;;;;;;;;;;4950200;28;20584;-77
2021/07/21 04:49:52;;;;;;;536.17;411.55;;;;;;;;;;4944972;28;20039;-78
2021/07/21 04:52:19;;;;;;;535.20;408.08;;;;;;;;;;4942188;28;20038;-77
2021/07/21 04:54:45;;;;;;;536.80;406.00;;;;;;;;;;4972307;28;20106;-77
2021/07/21 04:57:15;;;;;;;536.35;415.15;;;;;;;;;;4953272;28;20118;-78
2021/07/21 04:59:41;;;;;;;536.15;416.92;;;;;;;;;;4949588;28;20407;-77
2021/07/21 05:02:07;;;;;;;534.95;410.60;;;;;;;;;;4951527;28;20118;-77
2021/07/21 05:04:35;;;;;;;535.30;419.63;;;;;;;;;;4972007;28;20030;-77
2021/07/21 05:07:01;;;;;;;534.58;415.55;;;;;;;;;;4952027;28;20050;-77
2021/07/21 05:09:27;;;;;;;539.25;427.17;;;;;;;;;;4953405;28;20034;-77
2021/07/21 05:11:53;;;;;;;533.83;415.13;;;;;;;;;;4967149;28;20089;-77
2021/07/21 05:14:19;;;;;;;537.78;421.10;;;;;;;;;;4954491;28;20026;-77
2021/07/21 05:16:45;;;;;;;532.33;407.77;;;;;;;;;;4943286;28;20034;-78
2021/07/21 05:19:11;;;;;;;536.45;424.23;;;;;;;;;;4948368;28;20548;-78
2021/07/21 05:21:37;;;;;;;541.78;426.67;;;;;;;;;;4953036;28;20600;-77
2021/07/21 05:24:04;;;;;;;539.28;429.33;;;;;;;;;;4952323;29;20114;-77
2021/07/21 05:26:30;;;;;;;533.35;416.95;;;;;;;;;;4955472;28;20038;-77
2021/07/21 05:28:57;;;;;;;538.20;434.75;;;;;;;;;;4975473;28;20027;-77
2021/07/21 05:31:23;;;;;;;537.42;432.75;;;;;;;;;;4970213;28;20054;-78
2021/07/21 05:33:49;;;;;;;539.97;434.75;;;;;;;;;;4954954;28;20109;-78
2021/07/21 05:36:15;;;;;;;537.50;434.40;;;;;;;;;;4956707;28;20027;-78
2021/07/21 05:38:41;;;;;;;538.42;442.80;;;;;;;;;;4952924;28;20042;-78
2021/07/21 05:41:09;;;;;;;539.70;443.20;;;;;;;;;;4975551;28;20588;-78
2021/07/21 05:43:35;;;;;;;536.38;433.10;;;;;;;;;;4952109;28;20019;-78
2021/07/21 05:46:01;;;;;;;539.17;448.10;;;;;;;;;;4970823;28;20093;-78
2021/07/21 05:48:27;;;;;;;533.40;432.05;;;;;;;;;;4974595;28;20041;-78
2021/07/21 05:50:54;;;;;;;535.65;441.02;;;;;;;;;;4951441;28;20042;-78
2021/07/21 05:53:20;;;;;;;535.80;440.30;;;;;;;;;;4949916;28;20042;-78
2021/07/21 05:55:46;;;;;;;535.47;440.70;;;;;;;;;;4951017;28;20038;-78
2021/07/21 05:58:14;;;;;;;535.70;441.30;;;;;;;;;;4952472;28;20554;-78
2021/07/21 06:00:40;;;;;;;536.15;438.52;;;;;;;;;;4972694;28;20026;-78
2021/07/21 06:03:10;;;;;;;537.58;442.52;;;;;;;;;;4955248;28;20035;-78
2021/07/21 06:05:39;;;;;;;535.22;436.88;;;;;;;;;;4972143;28;20026;-78
2021/07/21 06:08:05;;;;;;;535.00;436.67;;;;;;;;;;4971529;28;20035;-78
2021/07/21 06:10:31;;;;;;;540.80;453.05;;;;;;;;;;4952189;28;20023;-78
2021/07/21 06:12:57;;;;;;;538.42;447.58;;;;;;;;;;4945905;28;20038;-78
2021/07/21 06:15:27;;;;;;;537.95;443.80;;;;;;;;;;4955112;28;20604;-78
2021/07/21 06:17:53;;;;;;;536.00;440.75;;;;;;;;;;4954405;28;20033;-78
2021/07/21 06:20:19;;;;;;;538.35;448.88;;;;;;;;;;4956353;28;20031;-77
2021/07/21 06:22:45;;;;;;;538.35;447.65;;;;;;;;;;4951055;28;20654;-78
2021/07/21 06:25:11;;;;;;;539.10;454.13;;;;;;;;;;4947339;28;20498;-78
2021/07/21 06:27:38;;;;;;;537.03;448.23;;;;;;;;;;4964560;28;20451;-78
2021/07/21 06:30:06;;;;;;;539.67;459.92;;;;;;;;;;4946859;28;20053;-78
2021/07/21 06:32:33;;;;;;;542.72;458.23;;;;;;;;;;4966921;28;20019;-78
2021/07/21 06:34:59;;;;;;;541.30;458.63;;;;;;;;;;4945301;28;20058;-78
2021/07/21 06:37:25;;;;;;;539.92;455.95;;;;;;;;;;4943785;28;20550;-78
2021/07/21 06:39:51;;;;;;;539.88;455.67;;;;;;;;;;4942556;28;20057;-78
2021/07/21 06:42:17;;;;;;;538.45;452.70;;;;;;;;;;4943863;28;20028;-78
2021/07/21 06:44:43;;;;;;;537.95;451.27;;;;;;;;;;4946169;28;20027;-78
2021/07/21 06:47:09;;;;;;;539.58;454.55;;;;;;;;;;4944951;28;20589;-78
2021/07/21 06:49:35;;;;;;;539.47;456.98;;;;;;;;;;4939539;28;20057;-78
2021/07/21 06:52:01;;;;;;;539.03;456.50;;;;;;;;;;4938291;28;20130;-78
2021/07/21 06:54:27;;;;;;;542.42;460.15;;;;;;;;;;4941745;28;20031;-78
2021/07/21 06:56:53;;;;;;;540.00;461.38;;;;;;;;;;4962047;28;20023;-78
2021/07/21 06:59:19;;;;;;;542.60;468.35;;;;;;;;;;4965431;28;20043;-77
2021/07/21 07:01:45;;;;;;;541.80;468.17;;;;;;;;;;4957025;28;21370;-77
2021/07/21 07:04:11;;;;;;;543.35;474.27;;;;;;;;;;4944705;28;20434;-78
2021/07/21 07:06:38;;;;;;;543.58;473.45;;;;;;;;;;4944755;28;20118;-78
2021/07/21 07:09:04;;;;;;;543.78;475.23;;;;;;;;;;4961333;28;20031;-78
2021/07/21 07:11:30;;;;;;;543.10;472.40;;;;;;;;;;4940258;28;20301;-77
2021/07/21 07:13:57;;;;;;;542.10;470.60;;;;;;;;;;4949373;28;20031;-77
2021/07/21 07:16:23;;;;;;;542.35;468.13;;;;;;;;;;4948028;28;20117;-77
2021/07/21 07:18:49;;;;;;;564.65;479.02;;;;;;;;;;4948206;28;20150;-77
2021/07/21 07:21:14;;;;;;;541.25;473.27;;;;;;;;;;4949707;29;20015;-77
2021/07/21 07:23:40;;;;;;;547.17;485.58;;;;;;;;;;4971291;28;20031;-77
2021/07/21 07:26:07;;;;;;;545.72;482.65;;;;;;;;;;4973721;28;20050;-77
2021/07/21 07:28:33;;;;;;;541.67;477.38;;;;;;;;;;4948129;29;20031;-77
2021/07/21 07:30:59;;;;;;;544.70;483.00;;;;;;;;;;4954355;28;20049;-78
2021/07/21 07:33:25;;;;;;;546.15;485.33;;;;;;;;;;4967344;28;20035;-77
2021/07/21 07:35:51;;;;;;;548.97;488.10;;;;;;;;;;4948094;29;20026;-77
2021/07/21 07:38:17;;;;;;;556.13;495.40;;;;;;;;;;4942886;28;20031;-77
2021/07/21 07:40:44;;;;;;;549.65;489.20;;;;;;;;;;4972330;28;20030;-77
2021/07/21 07:43:10;;;;;;;552.55;492.02;;;;;;;;;;4970971;28;20039;-77
2021/07/21 07:45:36;;;;;;;561.72;500.90;;;;;;;;;;4948410;28;20585;-77
2021/07/21 07:48:02;;;;;;;561.50;500.63;;;;;;;;;;4968554;28;20426;-77
2021/07/21 07:50:28;;;;;;;564.22;503.17;;;;;;;;;;4952432;28;20038;-76
2021/07/21 07:52:54;;;;;;;567.03;506.08;;;;;;;;;;4951365;28;20051;-77
2021/07/21 07:55:20;;;;;;;561.20;500.35;;;;;;;;;;4968459;28;20027;-77
2021/07/21 07:57:46;;;;;;;566.80;505.77;;;;;;;;;;4970972;28;20040;-76
2021/07/21 08:00:13;;;;;;;566.35;505.52;;;;;;;;;;4966802;28;20382;-76
2021/07/21 08:02:38;;;;;;;566.85;506.13;;;;;;;;;;4955913;28;20034;-76
2021/07/21 08:05:05;;;;;;;571.25;510.13;;;;;;;;;;4945039;29;20395;-76
2021/07/21 08:07:34;;;;;;;578.63;517.40;;;;;;;;;;4939426;28;20070;-76
2021/07/21 08:10:01;;;;;;;580.90;519.28;;;;;;;;;;4956722;28;20053;-76
2021/07/21 08:12:28;;;;;;;573.08;511.80;;;;;;;;;;4960031;28;20057;-77
2021/07/21 08:14:54;;;;;;;586.38;524.78;;;;;;;;;;4973924;28;20111;-83
2021/07/21 08:17:20;;;;;;;595.03;533.45;;;;;;;;;;4955893;28;20035;-82
2021/07/21 08:19:47;;;;;;;602.72;541.05;;;;;;;;;;4950700;29;20085;-82
2021/07/21 08:22:15;;;;;;;616.05;554.05;;;;;;;;;;4939961;29;20065;-82
2021/07/21 08:24:41;;;;;;;630.95;568.65;;;;;;;;;;4959191;28;20552;-79
2021/07/21 08:27:07;;;;;;;637.60;575.22;;;;;;;;;;4970333;28;20027;-79
2021/07/21 08:29:34;;;;;;;652.08;589.35;;;;;;;;;;4937162;29;20121;-81
2021/07/21 08:32:00;;;;;;;650.42;588.13;;;;;;;;;;4964396;28;20050;-84
2021/07/21 08:34:26;;;;;;;668.80;605.72;;;;;;;;;;4936758;29;20031;-83
2021/07/21 08:36:52;;;;;;;673.72;610.55;;;;;;;;;;4954381;28;20030;-81
2021/07/21 08:39:17;;;;;;;683.83;620.60;;;;;;;;;;4952165;29;20035;-79
2021/07/21 08:41:44;;;;;;;691.55;628.10;;;;;;;;;;4964373;28;20073;-82
2021/07/21 08:44:13;;;;;;;693.22;629.95;;;;;;;;;;4968182;28;20063;-83
2021/07/21 08:46:40;;;;;;;698.13;634.73;;;;;;;;;;4967672;28;20445;-82
2021/07/21 08:49:07;;;;;;;709.67;646.03;;;;;;;;;;4951503;28;20035;-85
2021/07/21 08:51:34;;;;;;;716.70;653.03;;;;;;;;;;4949004;28;20053;-85
2021/07/21 08:54:00;;;;;;;712.85;649.22;;;;;;;;;;4953356;29;20019;-81
2021/07/21 08:56:26;;;;;;;714.60;651.28;;;;;;;;;;4941374;29;20031;-83
2021/07/21 08:58:52;;;;;;;725.47;661.75;;;;;;;;;;4977548;28;20553;-85
2021/07/21 09:01:18;;;;;;;716.92;653.60;;;;;;;;;;4950527;29;20027;-80
2021/07/21 09:03:45;;;;;;;725.22;661.70;;;;;;;;;;4972791;28;20019;-85
2021/07/21 09:06:14;;;;;;;729.40;665.78;;;;;;;;;;4971751;28;20023;-77
2021/07/21 09:08:41;;;;;;;742.03;678.05;;;;;;;;;;4964073;28;20451;-85
2021/07/21 09:11:07;;;;;;;742.90;678.83;;;;;;;;;;4959999;28;20086;-80
2021/07/21 09:13:36;;;;;;;743.40;679.47;;;;;;;;;;4947703;28;20439;-78
2021/07/21 09:16:08;;;;;;;740.38;676.30;;;;;;;;;;4969413;28;20031;-78
2021/07/21 09:18:47;;;;;;;740.38;676.60;;;;;;;;;;4953623;29;20105;-81
2021/07/21 09:21:15;;;;;;;746.60;682.28;;;;;;;;;;4963614;28;20475;-82
2021/07/21 09:23:42;;;;;;;747.35;683.50;;;;;;;;;;4949151;28;20031;-75
2021/07/21 09:26:09;;;;;;;749.75;685.72;;;;;;;;;;4958980;28;20439;-83
2021/07/21 09:28:40;;;;;;;747.75;683.72;;;;;;;;;;4954611;28;20058;-81
2021/07/21 09:31:06;;;;;;;752.88;688.92;;;;;;;;;;4957300;28;20023;-79
2021/07/21 09:33:35;;;;;;;744.35;680.63;;;;;;;;;;4976227;28;20106;-79
2021/07/21 09:36:01;;;;;;;747.28;683.35;;;;;;;;;;4950545;29;20050;-81
2021/07/21 09:38:31;;;;;;;761.17;696.78;;;;;;;;;;4973529;28;20023;-88
2021/07/21 09:41:01;;;;;;;758.55;694.50;;;;;;;;;;4954076;28;20505;-84
2021/07/21 09:43:29;;;;;;;781.70;717.13;;;;;;;;;;4976705;28;20027;-85
2021/07/21 09:46:02;;;;;;;806.78;741.47;;;;;;;;;;4959754;28;20031;-81
2021/07/21 09:48:41;;;;;;;817.92;752.45;;;;;;;;;;4944750;28;20019;-83
2021/07/21 09:51:08;;;;;;;1778.90;999.90;;;;;;;;;;4946368;29;20019;-85
2021/07/21 09:53:40;;;;;;;1999.90;999.90;;;;;;;;;;4942021;29;20028;-85
2021/07/21 09:56:30;;;;;;;1999.90;999.90;;;;;;;;;;4940388;29;20391;-86
2021/07/21 09:59:23;;;;;;;919.33;844.97;;;;;;;;;;4945272;29;20085;-85
2021/07/21 10:01:49;;;;;;;947.95;869.75;;;;;;;;;;4943409;28;20027;-85
2021/07/21 10:04:29;;;;;;;947.67;870.13;;;;;;;;;;4960786;28;20014;-85
2021/07/21 10:06:55;;;;;;;1731.07;999.90;;;;;;;;;;4950868;28;20034;-83
2021/07/21 10:09:24;;;;;;;857.30;791.20;;;;;;;;;;4959967;28;20100;-83
2021/07/21 10:11:53;;;;;;;873.75;806.97;;;;;;;;;;4966894;28;20027;-81
2021/07/21 10:14:19;;;;;;;881.00;814.20;;;;;;;;;;4959367;28;20125;-80
2021/07/21 10:16:49;;;;;;;893.90;826.85;;;;;;;;;;4956982;28;20032;-82
2021/07/21 10:19:22;;;;;;;892.15;824.97;;;;;;;;;;4954700;29;20027;-82
2021/07/21 10:21:53;;;;;;;890.53;824.00;;;;;;;;;;4967436;28;20023;-83
2021/07/21 10:24:20;;;;;;;899.97;833.17;;;;;;;;;;4959275;28;20019;-83
2021/07/21 10:26:46;;;;;;;886.13;819.58;;;;;;;;;;4973932;28;20475;-82
2021/07/21 10:29:13;;;;;;;862.72;796.92;;;;;;;;;;4941449;29;20035;-81
2021/07/21 10:31:39;;;;;;;844.55;779.00;;;;;;;;;;4941397;29;20034;-80
2021/07/21 10:34:05;;;;;;;847.10;781.30;;;;;;;;;;4939384;29;20084;-80
2021/07/21 10:36:32;;;;;;;860.70;794.53;;;;;;;;;;4948202;28;20039;-81
2021/07/21 10:39:00;;;;;;;848.65;783.13;;;;;;;;;;4950979;28;20027;-83
2021/07/21 10:41:29;;;;;;;833.05;767.67;;;;;;;;;;4975896;28;20027;-77
2021/07/21 10:43:55;;;;;;;826.30;760.85;;;;;;;;;;4961443;28;20039;-83
2021/07/21 10:46:31;;;;;;;812.45;747.45;;;;;;;;;;4953497;28;20031;-80
2021/07/21 10:49:19;;;;;;;803.17;738.08;;;;;;;;;;4968472;28;20023;-82
2021/07/21 10:54:40;;;;;;;782.80;718.40;;;;;;;;;;4972000;28;20038;-79
2021/07/21 11:00:04;;;;;;;781.28;716.70;;;;;;;;;;4958346;28;20044;-84
2021/07/21 11:02:31;;;;;;;785.92;721.13;;;;;;;;;;4958675;28;20474;-81
2021/07/21 11:05:35;;;;;;;790.38;725.63;;;;;;;;;;4975567;28;20081;-81
2021/07/21 11:08:02;;;;;;;797.25;732.25;;;;;;;;;;4896733;29;20026;-81
2021/07/21 11:10:39;;;;;;;811.90;746.70;;;;;;;;;;4881623;29;20128;-83
2021/07/21 11:13:06;;;;;;;818.10;752.90;;;;;;;;;;4921245;28;20038;-80
2021/07/21 11:15:36;;;;;;;807.63;742.85;;;;;;;;;;4974500;28;20514;-84
2021/07/21 11:18:20;;;;;;;817.85;752.53;;;;;;;;;;4951877;28;20047;-82
2021/07/21 11:21:05;;;;;;;821.15;755.60;;;;;;;;;;4947729;28;20042;-77
2021/07/21 11:23:44;;;;;;;815.95;750.42;;;;;;;;;;4945210;28;20030;-81
2021/07/21 11:26:41;;;;;;;804.85;739.67;;;;;;;;;;4953343;28;20026;-82
2021/07/21 11:29:25;;;;;;;805.75;740.88;;;;;;;;;;4949761;29;20023;-84
2021/07/21 11:31:51;;;;;;;799.80;734.53;;;;;;;;;;4957857;28;20475;-85
2021/07/21 11:34:27;;;;;;;783.45;718.75;;;;;;;;;;4975487;28;20030;-82
2021/07/21 11:37:02;;;;;;;778.30;713.80;;;;;;;;;;4973916;28;20059;-82
2021/07/21 11:39:41;;;;;;;1999.90;999.90;;;;;;;;;;4956272;28;20094;-77
2021/07/21 11:42:09;;;;;;;1999.90;999.90;;;;;;;;;;4953627;28;20019;-81
2021/07/21 11:44:36;;;;;;;1999.90;999.90;;;;;;;;;;4974859;28;20023;-84
2021/07/21 11:47:03;;;;;;;1999.90;999.90;;;;;;;;;;4957516;28;20046;-81
2021/07/21 11:49:31;;;;;;;1999.90;999.90;;;;;;;;;;4949098;28;20034;-80
2021/07/21 11:52:01;;;;;;;1999.90;999.90;;;;;;;;;;4974599;28;20038;-83
2021/07/21 11:54:30;;;;;;;1999.90;999.90;;;;;;;;;;4968053;28;20088;-80
2021/07/21 11:56:56;;;;;;;1242.75;927.72;;;;;;;;;;4975372;28;20375;-81
2021/07/21 11:59:31;;;;;;;1999.90;999.90;;;;;;;;;;4969362;28;20026;-79
2021/07/21 12:02:04;;;;;;;1999.90;999.90;;;;;;;;;;4954717;29;20023;-79
2021/07/21 12:04:30;;;;;;;1011.90;919.95;;;;;;;;;;4938621;29;20121;-80
2021/07/21 12:06:56;;;;;;;920.35;845.13;;;;;;;;;;4937762;29;20051;-82
2021/07/21 12:09:27;;;;;;;1035.95;949.80;;;;;;;;;;4940197;29;20031;-78
2021/07/21 12:11:57;;;;;;;1008.13;924.42;;;;;;;;;;4967034;28;20046;-83
2021/07/21 12:14:23;;;;;;;1026.85;941.92;;;;;;;;;;4948336;29;20510;-81
2021/07/21 12:16:50;;;;;;;1022.05;936.88;;;;;;;;;;4954869;29;20027;-84
2021/07/21 12:19:16;;;;;;;1999.90;999.90;;;;;;;;;;4954002;28;20027;-83
2021/07/21 12:21:42;;;;;;;1066.05;976.08;;;;;;;;;;4946913;28;20082;-83
2021/07/21 12:24:12;;;;;;;1032.03;945.65;;;;;;;;;;4970196;28;20027;-84
2021/07/21 12:26:46;;;;;;;1788.50;999.90;;;;;;;;;;4949210;28;20684;-82
2021/07/21 12:29:12;;;;;;;748.80;684.53;;;;;;;;;;4953279;28;20153;-82
2021/07/21 12:31:38;;;;;;;746.13;681.75;;;;;;;;;;4940287;28;20066;-82
2021/07/21 12:34:15;;;;;;;740.05;675.72;;;;;;;;;;4938749;28;20447;-81
2021/07/21 12:36:42;;;;;;;734.58;670.17;;;;;;;;;;4961748;28;20027;-82
2021/07/21 12:39:08;;;;;;;739.22;674.65;;;;;;;;;;4938642;29;20054;-81
2021/07/21 12:41:34;;;;;;;720.15;656.38;;;;;;;;;;4959275;28;20055;-83
2021/07/21 12:44:00;;;;;;;725.83;661.70;;;;;;;;;;4953781;28;21705;-82
2021/07/21 12:46:26;;;;;;;739.13;675.17;;;;;;;;;;4965241;28;20024;-83
2021/07/21 12:48:54;;;;;;;762.33;697.92;;;;;;;;;;4957178;28;20502;-80
2021/07/21 12:51:21;;;;;;;774.67;710.22;;;;;;;;;;4939039;28;20611;-82
2021/07/21 12:53:47;;;;;;;769.53;705.38;;;;;;;;;;4943280;28;20511;-84
2021/07/21 12:56:14;;;;;;;780.60;715.70;;;;;;;;;;4951362;28;20031;-84
2021/07/21 12:58:40;;;;;;;774.65;709.72;;;;;;;;;;4945199;29;20395;-77
2021/07/21 13:01:06;;;;;;;1999.90;999.90;;;;;;;;;;4971524;28;20383;-79
2021/07/21 13:03:46;;;;;;;752.67;688.10;;;;;;;;;;4955823;28;20027;-77
2021/07/21 13:06:22;;;;;;;733.95;670.22;;;;;;;;;;4945157;28;20031;-84
2021/07/21 13:08:49;;;;;;;732.83;669.17;;;;;;;;;;4969771;28;20085;-79
2021/07/21 13:11:15;;;;;;;733.85;670.05;;;;;;;;;;4951992;29;20035;-81
2021/07/21 13:13:50;;;;;;;723.28;659.85;;;;;;;;;;4938062;29;20035;-84
2021/07/21 13:16:22;;;;;;;725.15;661.47;;;;;;;;;;4949544;28;20498;-82
2021/07/21 13:18:48;;;;;;;724.80;661.05;;;;;;;;;;4948902;29;20472;-84
2021/07/21 13:21:25;;;;;;;736.33;671.60;;;;;;;;;;4972563;28;20029;-78
2021/07/21 13:23:52;;;;;;;756.08;689.78;;;;;;;;;;4954560;28;20031;-82
2021/07/21 13:26:19;;;;;;;769.45;702.15;;;;;;;;;;4939624;28;20115;-83
2021/07/21 13:28:46;;;;;;;777.78;709.20;;;;;;;;;;4954936;28;20035;-82
2021/07/21 13:31:32;;;;;;;784.55;715.28;;;;;;;;;;4946515;28;20078;-77
2021/07/21 13:33:58;;;;;;;792.45;722.20;;;;;;;;;;4943559;28;20026;-78
2021/07/21 13:36:27;;;;;;;800.80;729.28;;;;;;;;;;4943866;29;20047;-83
2021/07/21 13:38:55;;;;;;;1999.90;999.90;;;;;;;;;;4956025;28;20035;-80
2021/07/21 13:41:45;;;;;;;822.88;741.80;;;;;;;;;;4948502;28;20039;-84
2021/07/21 13:44:12;;;;;;;1999.90;999.90;;;;;;;;;;4956299;28;20435;-85
2021/07/21 13:46:39;;;;;;;1999.90;999.90;;;;;;;;;;4959549;28;20027;-81
2021/07/21 13:49:07;;;;;;;1999.90;999.90;;;;;;;;;;4973815;28;20846;-85
2021/07/21 13:51:38;;;;;;;1999.90;999.90;;;;;;;;;;4941056;29;20042;-81
2021/07/21 13:54:08;;;;;;;1999.90;999.90;;;;;;;;;;4945655;28;20027;-83
2021/07/21 13:56:35;;;;;;;1999.90;999.90;;;;;;;;;;4957975;28;20066;-75
2021/07/21 13:59:01;;;;;;;1999.90;999.90;;;;;;;;;;4953937;28;20035;-79
2021/07/21 14:01:27;;;;;;;1999.90;999.90;;;;;;;;;;4948330;29;20027;-82
2021/07/21 14:03:58;;;;;;;1999.90;999.90;;;;;;;;;;4947475;29;20087;-84
2021/07/21 14:06:24;;;;;;;1999.90;999.90;;;;;;;;;;4940490;29;20029;-78